sensor_id;sensor_type;location;lat;lon;timestamp;P1;durP1;ratioP1;P2;durP2;ratioP2
10162;SDS011;5123;52.556;13.384;2023-03-31T00:02:12;4.50;;;3.00;;
10162;SDS011;5123;52.556;13.384;2023-03-31T00:04:45;6.13;;;3.30;;
10162;SDS011;5123;52.556;13.384;2023-03-31T00:07:23;6.63;;;3.27;;
10162;SDS011;5123;52.556;13.384;2023-03-31T00:09:59;7.43;;;4.03;;
10162;SDS011;5123;52.556;13.384;2023-03-31T00:12:48;7.30;;;3.77;;
10162;SDS011;5123;52.556;13.384;2023-03-31T00:15:21;4.67;;;2.93;;
10162;SDS011;5123;52.556;13.384;2023-03-31T00:17:53;5.97;;;3.23;;
10162;SDS011;5123;52.556;13.384;2023-03-31T00:20:31;7.00;;;3.40;;
10162;SDS011;5123;52.556;13.384;2023-03-31T00:23:08;7.23;;;3.40;;
10162;SDS011;5123;52.556;13.384;2023-03-31T00:25:44;7.03;;;3.07;;
10162;SDS011;5123;52.556;13.384;2023-03-31T00:28:17;7.97;;;3.20;;
10162;SDS011;5123;52.556;13.384;2023-03-31T00:30:50;6.57;;;3.40;;
10162;SDS011;5123;52.556;13.384;2023-03-31T00:33:23;7.23;;;3.37;;
10162;SDS011;5123;52.556;13.384;2023-03-31T00:35:57;6.13;;;3.70;;
10162;SDS011;5123;52.556;13.384;2023-03-31T00:38:37;5.63;;;3.17;;
10162;SDS011;5123;52.556;13.384;2023-03-31T00:41:11;7.27;;;3.53;;
10162;SDS011;5123;52.556;13.384;2023-03-31T00:43:59;4.10;;;2.67;;
10162;SDS011;5123;52.556;13.384;2023-03-31T00:46:33;6.50;;;2.60;;
10162;SDS011;5123;52.556;13.384;2023-03-31T00:49:06;5.80;;;2.80;;
10162;SDS011;5123;52.556;13.384;2023-03-31T00:51:43;4.50;;;2.83;;
10162;SDS011;5123;52.556;13.384;2023-03-31T00:54:18;8.23;;;2.93;;
10162;SDS011;5123;52.556;13.384;2023-03-31T00:56:53;6.13;;;2.97;;
10162;SDS011;5123;52.556;13.384;2023-03-31T00:59:29;8.50;;;3.60;;
10162;SDS011;5123;52.556;13.384;2023-03-31T01:02:05;6.80;;;3.73;;
10162;SDS011;5123;52.556;13.384;2023-03-31T01:04:40;6.90;;;3.00;;
10162;SDS011;5123;52.556;13.384;2023-03-31T01:07:16;6.53;;;2.67;;
10162;SDS011;5123;52.556;13.384;2023-03-31T01:09:50;8.10;;;3.07;;
10162;SDS011;5123;52.556;13.384;2023-03-31T01:12:26;8.50;;;2.63;;
10162;SDS011;5123;52.556;13.384;2023-03-31T01:15:01;6.07;;;3.40;;
10162;SDS011;5123;52.556;13.384;2023-03-31T01:17:34;3.57;;;2.40;;
10162;SDS011;5123;52.556;13.384;2023-03-31T01:20:09;4.20;;;3.10;;
10162;SDS011;5123;52.556;13.384;2023-03-31T01:25:47;6.23;;;2.63;;
10162;SDS011;5123;52.556;13.384;2023-03-31T01:28:31;8.77;;;2.87;;
10162;SDS011;5123;52.556;13.384;2023-03-31T01:31:10;8.47;;;3.13;;
10162;SDS011;5123;52.556;13.384;2023-03-31T01:39:49;4.83;;;2.50;;
10162;SDS011;5123;52.556;13.384;2023-03-31T01:42:29;4.23;;;2.20;;
10162;SDS011;5123;52.556;13.384;2023-03-31T01:45:09;5.93;;;2.23;;
10162;SDS011;5123;52.556;13.384;2023-03-31T01:47:45;5.03;;;2.50;;
10162;SDS011;5123;52.556;13.384;2023-03-31T01:50:22;3.83;;;2.40;;
10162;SDS011;5123;52.556;13.384;2023-03-31T01:53:00;3.93;;;2.83;;
10162;SDS011;5123;52.556;13.384;2023-03-31T01:55:37;7.03;;;2.57;;
10162;SDS011;5123;52.556;13.384;2023-03-31T01:58:12;6.67;;;2.53;;
10162;SDS011;5123;52.556;13.384;2023-03-31T02:00:48;2.80;;;2.20;;
10162;SDS011;5123;52.556;13.384;2023-03-31T02:03:28;4.37;;;2.80;;
10162;SDS011;5123;52.556;13.384;2023-03-31T02:06:04;4.17;;;2.77;;
10162;SDS011;5123;52.556;13.384;2023-03-31T02:08:40;4.37;;;2.53;;
10162;SDS011;5123;52.556;13.384;2023-03-31T02:11:15;4.07;;;2.13;;
10162;SDS011;5123;52.556;13.384;2023-03-31T02:13:50;6.00;;;2.83;;
10162;SDS011;5123;52.556;13.384;2023-03-31T02:16:27;3.07;;;2.50;;
10162;SDS011;5123;52.556;13.384;2023-03-31T02:19:03;6.57;;;2.70;;
10162;SDS011;5123;52.556;13.384;2023-03-31T02:21:36;5.00;;;2.23;;
10162;SDS011;5123;52.556;13.384;2023-03-31T02:24:10;5.73;;;2.60;;
10162;SDS011;5123;52.556;13.384;2023-03-31T02:26:48;4.80;;;2.40;;
10162;SDS011;5123;52.556;13.384;2023-03-31T02:29:21;4.47;;;2.30;;
10162;SDS011;5123;52.556;13.384;2023-03-31T02:31:55;5.70;;;2.23;;
10162;SDS011;5123;52.556;13.384;2023-03-31T02:34:29;4.90;;;2.47;;
10162;SDS011;5123;52.556;13.384;2023-03-31T02:37:02;5.83;;;2.30;;
10162;SDS011;5123;52.556;13.384;2023-03-31T02:39:35;5.40;;;2.50;;
10162;SDS011;5123;52.556;13.384;2023-03-31T02:42:11;3.53;;;2.50;;
10162;SDS011;5123;52.556;13.384;2023-03-31T02:44:44;2.93;;;2.10;;
10162;SDS011;5123;52.556;13.384;2023-03-31T02:47:17;6.00;;;2.23;;
10162;SDS011;5123;52.556;13.384;2023-03-31T02:49:52;5.90;;;2.13;;
10162;SDS011;5123;52.556;13.384;2023-03-31T02:52:31;4.10;;;2.37;;
10162;SDS011;5123;52.556;13.384;2023-03-31T03:00:54;7.00;;;2.30;;
10162;SDS011;5123;52.556;13.384;2023-03-31T03:03:34;2.73;;;2.07;;
10162;SDS011;5123;52.556;13.384;2023-03-31T03:06:17;3.97;;;2.40;;
10162;SDS011;5123;52.556;13.384;2023-03-31T03:08:55;5.87;;;2.07;;
10162;SDS011;5123;52.556;13.384;2023-03-31T03:11:31;6.17;;;2.53;;
10162;SDS011;5123;52.556;13.384;2023-03-31T03:14:08;4.83;;;1.90;;
10162;SDS011;5123;52.556;13.384;2023-03-31T03:16:47;4.10;;;2.43;;
10162;SDS011;5123;52.556;13.384;2023-03-31T03:19:22;3.17;;;1.93;;
10162;SDS011;5123;52.556;13.384;2023-03-31T03:21:55;5.10;;;1.93;;
10162;SDS011;5123;52.556;13.384;2023-03-31T03:24:29;7.23;;;2.70;;
10162;SDS011;5123;52.556;13.384;2023-03-31T03:27:04;6.07;;;2.00;;
10162;SDS011;5123;52.556;13.384;2023-03-31T03:29:37;3.37;;;2.13;;
10162;SDS011;5123;52.556;13.384;2023-03-31T03:32:11;3.57;;;2.23;;
10162;SDS011;5123;52.556;13.384;2023-03-31T03:34:44;3.53;;;1.90;;
10162;SDS011;5123;52.556;13.384;2023-03-31T03:37:17;4.70;;;2.00;;
10162;SDS011;5123;52.556;13.384;2023-03-31T03:39:50;6.10;;;1.80;;
10162;SDS011;5123;52.556;13.384;2023-03-31T03:42:23;4.23;;;2.03;;
10162;SDS011;5123;52.556;13.384;2023-03-31T03:44:58;2.50;;;1.60;;
10162;SDS011;5123;52.556;13.384;2023-03-31T03:47:33;4.37;;;2.10;;
10162;SDS011;5123;52.556;13.384;2023-03-31T03:50:07;4.80;;;1.93;;
10162;SDS011;5123;52.556;13.384;2023-03-31T03:52:40;5.33;;;2.10;;
10162;SDS011;5123;52.556;13.384;2023-03-31T03:55:13;3.00;;;1.90;;
10162;SDS011;5123;52.556;13.384;2023-03-31T03:57:46;5.60;;;2.20;;
10162;SDS011;5123;52.556;13.384;2023-03-31T04:00:18;4.40;;;1.70;;
10162;SDS011;5123;52.556;13.384;2023-03-31T04:02:55;5.30;;;2.10;;
10162;SDS011;5123;52.556;13.384;2023-03-31T04:05:35;3.10;;;2.03;;
10162;SDS011;5123;52.556;13.384;2023-03-31T04:08:08;3.43;;;2.10;;
10162;SDS011;5123;52.556;13.384;2023-03-31T04:10:42;3.93;;;2.30;;
10162;SDS011;5123;52.556;13.384;2023-03-31T04:13:15;5.90;;;2.37;;
10162;SDS011;5123;52.556;13.384;2023-03-31T04:15:50;2.03;;;1.63;;
10162;SDS011;5123;52.556;13.384;2023-03-31T04:18:24;4.33;;;2.03;;
10162;SDS011;5123;52.556;13.384;2023-03-31T04:20:57;3.00;;;2.20;;
10162;SDS011;5123;52.556;13.384;2023-03-31T04:23:35;5.30;;;2.53;;
10162;SDS011;5123;52.556;13.384;2023-03-31T04:26:09;5.13;;;1.77;;
10162;SDS011;5123;52.556;13.384;2023-03-31T04:28:42;6.03;;;2.17;;
10162;SDS011;5123;52.556;13.384;2023-03-31T04:31:17;5.40;;;2.13;;
10162;SDS011;5123;52.556;13.384;2023-03-31T04:34:00;2.23;;;1.93;;
10162;SDS011;5123;52.556;13.384;2023-03-31T04:36:39;4.47;;;2.07;;
10162;SDS011;5123;52.556;13.384;2023-03-31T04:39:18;4.47;;;2.03;;
10162;SDS011;5123;52.556;13.384;2023-03-31T04:41:58;5.87;;;1.97;;
10162;SDS011;5123;52.556;13.384;2023-03-31T04:44:31;3.40;;;2.10;;
10162;SDS011;5123;52.556;13.384;2023-03-31T04:47:04;3.37;;;2.00;;
10162;SDS011;5123;52.556;13.384;2023-03-31T04:49:39;3.63;;;2.27;;
10162;SDS011;5123;52.556;13.384;2023-03-31T04:52:13;6.63;;;2.30;;
10162;SDS011;5123;52.556;13.384;2023-03-31T04:54:47;4.17;;;2.20;;
10162;SDS011;5123;52.556;13.384;2023-03-31T04:57:20;5.50;;;2.27;;
10162;SDS011;5123;52.556;13.384;2023-03-31T04:59:59;4.03;;;2.10;;
10162;SDS011;5123;52.556;13.384;2023-03-31T05:02:32;5.57;;;2.47;;
10162;SDS011;5123;52.556;13.384;2023-03-31T05:05:07;4.03;;;2.03;;
10162;SDS011;5123;52.556;13.384;2023-03-31T05:07:41;3.77;;;1.93;;
10162;SDS011;5123;52.556;13.384;2023-03-31T05:10:14;5.43;;;2.30;;
10162;SDS011;5123;52.556;13.384;2023-03-31T05:12:47;3.80;;;2.30;;
10162;SDS011;5123;52.556;13.384;2023-03-31T05:15:20;4.43;;;2.10;;
10162;SDS011;5123;52.556;13.384;2023-03-31T05:17:56;3.57;;;2.20;;
10162;SDS011;5123;52.556;13.384;2023-03-31T05:20:31;4.43;;;2.00;;
10162;SDS011;5123;52.556;13.384;2023-03-31T05:23:03;3.90;;;2.20;;
10162;SDS011;5123;52.556;13.384;2023-03-31T05:25:37;3.90;;;2.10;;
10162;SDS011;5123;52.556;13.384;2023-03-31T05:28:11;6.27;;;2.47;;
10162;SDS011;5123;52.556;13.384;2023-03-31T05:30:44;6.43;;;2.70;;
10162;SDS011;5123;52.556;13.384;2023-03-31T05:33:16;3.77;;;2.20;;
10162;SDS011;5123;52.556;13.384;2023-03-31T05:35:51;4.57;;;2.40;;
10162;SDS011;5123;52.556;13.384;2023-03-31T05:38:24;5.13;;;2.67;;
10162;SDS011;5123;52.556;13.384;2023-03-31T05:40:59;6.50;;;2.60;;
10162;SDS011;5123;52.556;13.384;2023-03-31T05:43:34;6.10;;;2.40;;
10162;SDS011;5123;52.556;13.384;2023-03-31T05:46:07;5.17;;;2.33;;
10162;SDS011;5123;52.556;13.384;2023-03-31T05:48:43;5.63;;;2.73;;
10162;SDS011;5123;52.556;13.384;2023-03-31T05:51:17;7.10;;;2.33;;
10162;SDS011;5123;52.556;13.384;2023-03-31T05:53:50;4.77;;;2.00;;
10162;SDS011;5123;52.556;13.384;2023-03-31T05:56:23;6.87;;;2.27;;
10162;SDS011;5123;52.556;13.384;2023-03-31T05:58:58;4.33;;;2.40;;
10162;SDS011;5123;52.556;13.384;2023-03-31T06:01:31;5.60;;;2.67;;
10162;SDS011;5123;52.556;13.384;2023-03-31T06:04:07;7.27;;;2.63;;
10162;SDS011;5123;52.556;13.384;2023-03-31T06:06:47;9.33;;;2.53;;
10162;SDS011;5123;52.556;13.384;2023-03-31T06:09:21;4.10;;;1.97;;
10162;SDS011;5123;52.556;13.384;2023-03-31T06:11:53;5.27;;;2.47;;
10162;SDS011;5123;52.556;13.384;2023-03-31T06:14:26;4.37;;;2.20;;
10162;SDS011;5123;52.556;13.384;2023-03-31T06:16:59;5.50;;;2.50;;
10162;SDS011;5123;52.556;13.384;2023-03-31T06:19:32;4.47;;;2.93;;
10162;SDS011;5123;52.556;13.384;2023-03-31T06:22:09;5.80;;;2.47;;
10162;SDS011;5123;52.556;13.384;2023-03-31T06:24:47;3.70;;;2.57;;
10162;SDS011;5123;52.556;13.384;2023-03-31T06:27:20;4.97;;;2.97;;
10162;SDS011;5123;52.556;13.384;2023-03-31T06:29:56;9.33;;;2.60;;
10162;SDS011;5123;52.556;13.384;2023-03-31T06:32:31;7.43;;;3.10;;
10162;SDS011;5123;52.556;13.384;2023-03-31T06:35:06;7.00;;;2.93;;
10162;SDS011;5123;52.556;13.384;2023-03-31T06:37:40;9.17;;;2.90;;
10162;SDS011;5123;52.556;13.384;2023-03-31T06:40:13;9.73;;;3.10;;
10162;SDS011;5123;52.556;13.384;2023-03-31T06:42:46;6.40;;;2.63;;
10162;SDS011;5123;52.556;13.384;2023-03-31T06:45:19;7.70;;;2.90;;
10162;SDS011;5123;52.556;13.384;2023-03-31T06:47:52;8.67;;;2.57;;
10162;SDS011;5123;52.556;13.384;2023-03-31T06:50:25;6.90;;;2.70;;
10162;SDS011;5123;52.556;13.384;2023-03-31T06:53:01;11.53;;;3.43;;
10162;SDS011;5123;52.556;13.384;2023-03-31T06:55:34;4.40;;;2.60;;
10162;SDS011;5123;52.556;13.384;2023-03-31T06:58:06;6.13;;;2.37;;
10162;SDS011;5123;52.556;13.384;2023-03-31T07:00:39;4.77;;;2.67;;
10162;SDS011;5123;52.556;13.384;2023-03-31T07:03:12;6.10;;;2.70;;
10162;SDS011;5123;52.556;13.384;2023-03-31T07:05:49;6.97;;;2.70;;
10162;SDS011;5123;52.556;13.384;2023-03-31T07:08:23;6.07;;;2.70;;
10162;SDS011;5123;52.556;13.384;2023-03-31T07:10:57;7.40;;;2.97;;
10162;SDS011;5123;52.556;13.384;2023-03-31T07:13:30;5.23;;;2.50;;
10162;SDS011;5123;52.556;13.384;2023-03-31T07:16:03;6.67;;;2.80;;
10162;SDS011;5123;52.556;13.384;2023-03-31T07:18:37;5.13;;;2.80;;
10162;SDS011;5123;52.556;13.384;2023-03-31T07:21:12;5.00;;;2.37;;
10162;SDS011;5123;52.556;13.384;2023-03-31T07:23:47;5.93;;;2.60;;
10162;SDS011;5123;52.556;13.384;2023-03-31T07:26:20;4.33;;;2.37;;
10162;SDS011;5123;52.556;13.384;2023-03-31T07:28:57;8.17;;;2.60;;
10162;SDS011;5123;52.556;13.384;2023-03-31T07:31:30;4.63;;;2.50;;
10162;SDS011;5123;52.556;13.384;2023-03-31T07:34:03;4.87;;;2.80;;
10162;SDS011;5123;52.556;13.384;2023-03-31T07:36:38;7.27;;;2.80;;
10162;SDS011;5123;52.556;13.384;2023-03-31T07:39:13;5.43;;;2.50;;
10162;SDS011;5123;52.556;13.384;2023-03-31T07:41:47;3.33;;;2.47;;
10162;SDS011;5123;52.556;13.384;2023-03-31T07:44:20;6.27;;;2.60;;
10162;SDS011;5123;52.556;13.384;2023-03-31T07:46:53;6.70;;;2.60;;
10162;SDS011;5123;52.556;13.384;2023-03-31T07:49:27;5.77;;;2.77;;
10162;SDS011;5123;52.556;13.384;2023-03-31T07:51:59;5.27;;;2.80;;
10162;SDS011;5123;52.556;13.384;2023-03-31T07:54:34;8.57;;;2.70;;
10162;SDS011;5123;52.556;13.384;2023-03-31T07:57:07;5.10;;;2.40;;
10162;SDS011;5123;52.556;13.384;2023-03-31T07:59:40;7.13;;;2.87;;
10162;SDS011;5123;52.556;13.384;2023-03-31T08:02:14;8.20;;;2.63;;
10162;SDS011;5123;52.556;13.384;2023-03-31T08:04:50;4.13;;;2.63;;
10162;SDS011;5123;52.556;13.384;2023-03-31T08:07:24;9.83;;;2.70;;
10162;SDS011;5123;52.556;13.384;2023-03-31T08:09:59;6.60;;;2.87;;
10162;SDS011;5123;52.556;13.384;2023-03-31T08:12:32;4.20;;;2.40;;
10162;SDS011;5123;52.556;13.384;2023-03-31T08:15:05;10.37;;;2.90;;
10162;SDS011;5123;52.556;13.384;2023-03-31T08:17:38;7.67;;;2.87;;
10162;SDS011;5123;52.556;13.384;2023-03-31T08:20:12;6.73;;;2.33;;
10162;SDS011;5123;52.556;13.384;2023-03-31T08:22:47;8.63;;;2.83;;
10162;SDS011;5123;52.556;13.384;2023-03-31T08:25:22;4.73;;;2.70;;
10162;SDS011;5123;52.556;13.384;2023-03-31T08:27:55;5.07;;;2.23;;
10162;SDS011;5123;52.556;13.384;2023-03-31T08:30:28;6.37;;;2.60;;
10162;SDS011;5123;52.556;13.384;2023-03-31T08:33:01;10.90;;;2.60;;
10162;SDS011;5123;52.556;13.384;2023-03-31T08:35:35;6.93;;;3.00;;
10162;SDS011;5123;52.556;13.384;2023-03-31T08:38:07;6.70;;;2.83;;
10162;SDS011;5123;52.556;13.384;2023-03-31T08:40:42;8.40;;;2.97;;
10162;SDS011;5123;52.556;13.384;2023-03-31T08:43:15;6.90;;;2.33;;
10162;SDS011;5123;52.556;13.384;2023-03-31T08:45:50;7.27;;;2.80;;
10162;SDS011;5123;52.556;13.384;2023-03-31T08:48:27;4.60;;;2.20;;
10162;SDS011;5123;52.556;13.384;2023-03-31T08:51:02;6.60;;;2.03;;
10162;SDS011;5123;52.556;13.384;2023-03-31T08:53:37;5.50;;;2.40;;
10162;SDS011;5123;52.556;13.384;2023-03-31T08:56:14;6.40;;;2.60;;
10162;SDS011;5123;52.556;13.384;2023-03-31T08:58:48;5.97;;;2.73;;
10162;SDS011;5123;52.556;13.384;2023-03-31T09:01:26;6.67;;;2.57;;
10162;SDS011;5123;52.556;13.384;2023-03-31T09:07:00;8.63;;;3.27;;
10162;SDS011;5123;52.556;13.384;2023-03-31T09:09:38;5.83;;;2.80;;
10162;SDS011;5123;52.556;13.384;2023-03-31T09:12:18;8.87;;;4.70;;
10162;SDS011;5123;52.556;13.384;2023-03-31T09:14:52;5.60;;;2.30;;
10162;SDS011;5123;52.556;13.384;2023-03-31T09:17:29;8.50;;;2.63;;
10162;SDS011;5123;52.556;13.384;2023-03-31T09:20:04;6.57;;;2.43;;
10162;SDS011;5123;52.556;13.384;2023-03-31T09:22:40;6.90;;;2.30;;
10162;SDS011;5123;52.556;13.384;2023-03-31T09:25:16;3.90;;;2.00;;
10162;SDS011;5123;52.556;13.384;2023-03-31T09:27:53;7.17;;;2.67;;
10162;SDS011;5123;52.556;13.384;2023-03-31T09:30:28;9.17;;;2.73;;
10162;SDS011;5123;52.556;13.384;2023-03-31T09:33:03;6.33;;;2.40;;
10162;SDS011;5123;52.556;13.384;2023-03-31T09:35:42;5.23;;;2.57;;
10162;SDS011;5123;52.556;13.384;2023-03-31T09:38:17;6.47;;;3.17;;
10162;SDS011;5123;52.556;13.384;2023-03-31T09:40:49;4.37;;;2.33;;
10162;SDS011;5123;52.556;13.384;2023-03-31T09:43:24;4.83;;;2.40;;
10162;SDS011;5123;52.556;13.384;2023-03-31T09:45:58;10.07;;;5.93;;
10162;SDS011;5123;52.556;13.384;2023-03-31T09:48:39;8.80;;;3.23;;
10162;SDS011;5123;52.556;13.384;2023-03-31T09:51:15;7.80;;;2.80;;
10162;SDS011;5123;52.556;13.384;2023-03-31T09:53:50;4.13;;;2.23;;
10162;SDS011;5123;52.556;13.384;2023-03-31T09:56:31;8.53;;;3.33;;
10162;SDS011;5123;52.556;13.384;2023-03-31T09:59:11;9.07;;;4.37;;
10162;SDS011;5123;52.556;13.384;2023-03-31T10:01:45;8.30;;;5.43;;
10162;SDS011;5123;52.556;13.384;2023-03-31T10:04:20;7.60;;;3.10;;
10162;SDS011;5123;52.556;13.384;2023-03-31T10:06:54;9.27;;;5.57;;
10162;SDS011;5123;52.556;13.384;2023-03-31T10:09:28;10.00;;;4.60;;
10162;SDS011;5123;52.556;13.384;2023-03-31T10:12:03;7.40;;;3.63;;
10162;SDS011;5123;52.556;13.384;2023-03-31T10:14:44;6.60;;;3.03;;
10162;SDS011;5123;52.556;13.384;2023-03-31T10:17:18;6.53;;;2.80;;
10162;SDS011;5123;52.556;13.384;2023-03-31T10:19:55;9.00;;;3.03;;
10162;SDS011;5123;52.556;13.384;2023-03-31T10:22:42;9.83;;;3.50;;
10162;SDS011;5123;52.556;13.384;2023-03-31T10:25:15;3.97;;;2.33;;
10162;SDS011;5123;52.556;13.384;2023-03-31T10:27:50;5.63;;;2.70;;
10162;SDS011;5123;52.556;13.384;2023-03-31T10:30:27;8.67;;;2.63;;
10162;SDS011;5123;52.556;13.384;2023-03-31T10:33:03;6.93;;;3.53;;
10162;SDS011;5123;52.556;13.384;2023-03-31T10:35:53;3.33;;;2.70;;
10162;SDS011;5123;52.556;13.384;2023-03-31T10:38:30;6.07;;;3.03;;
10162;SDS011;5123;52.556;13.384;2023-03-31T10:41:05;6.07;;;3.63;;
10162;SDS011;5123;52.556;13.384;2023-03-31T10:43:39;8.63;;;3.17;;
10162;SDS011;5123;52.556;13.384;2023-03-31T10:46:14;4.37;;;3.20;;
10162;SDS011;5123;52.556;13.384;2023-03-31T10:48:47;4.70;;;3.33;;
10162;SDS011;5123;52.556;13.384;2023-03-31T10:51:24;4.93;;;2.70;;
10162;SDS011;5123;52.556;13.384;2023-03-31T10:53:59;6.47;;;3.60;;
10162;SDS011;5123;52.556;13.384;2023-03-31T10:56:35;3.17;;;2.90;;
10162;SDS011;5123;52.556;13.384;2023-03-31T10:59:13;4.40;;;2.80;;
10162;SDS011;5123;52.556;13.384;2023-03-31T11:01:55;3.37;;;2.57;;
10162;SDS011;5123;52.556;13.384;2023-03-31T11:04:37;4.40;;;3.00;;
10162;SDS011;5123;52.556;13.384;2023-03-31T11:07:30;4.93;;;2.80;;
10162;SDS011;5123;52.556;13.384;2023-03-31T11:10:09;4.17;;;2.53;;
10162;SDS011;5123;52.556;13.384;2023-03-31T11:12:51;6.33;;;3.10;;
10162;SDS011;5123;52.556;13.384;2023-03-31T11:15:26;5.10;;;3.30;;
10162;SDS011;5123;52.556;13.384;2023-03-31T11:18:13;4.63;;;3.03;;
10162;SDS011;5123;52.556;13.384;2023-03-31T11:20:50;4.07;;;3.37;;
10162;SDS011;5123;52.556;13.384;2023-03-31T11:23:29;5.87;;;3.27;;
10162;SDS011;5123;52.556;13.384;2023-03-31T11:26:06;5.87;;;3.50;;
10162;SDS011;5123;52.556;13.384;2023-03-31T11:28:55;3.87;;;3.43;;
10162;SDS011;5123;52.556;13.384;2023-03-31T11:31:36;5.67;;;2.87;;
10162;SDS011;5123;52.556;13.384;2023-03-31T11:34:19;6.37;;;3.07;;
10162;SDS011;5123;52.556;13.384;2023-03-31T11:39:51;6.43;;;2.70;;
10162;SDS011;5123;52.556;13.384;2023-03-31T11:42:32;3.40;;;2.37;;
10162;SDS011;5123;52.556;13.384;2023-03-31T11:45:11;4.83;;;2.33;;
10162;SDS011;5123;52.556;13.384;2023-03-31T11:47:47;3.13;;;2.30;;
10162;SDS011;5123;52.556;13.384;2023-03-31T11:50:24;4.77;;;2.30;;
10162;SDS011;5123;52.556;13.384;2023-03-31T11:52:59;6.07;;;2.47;;
10162;SDS011;5123;52.556;13.384;2023-03-31T11:55:32;4.30;;;2.00;;
10162;SDS011;5123;52.556;13.384;2023-03-31T11:58:10;5.33;;;2.70;;
10162;SDS011;5123;52.556;13.384;2023-03-31T12:00:46;3.57;;;1.90;;
10162;SDS011;5123;52.556;13.384;2023-03-31T12:03:20;6.67;;;2.33;;
10162;SDS011;5123;52.556;13.384;2023-03-31T12:05:56;5.73;;;2.50;;
10162;SDS011;5123;52.556;13.384;2023-03-31T12:08:32;5.83;;;3.00;;
10162;SDS011;5123;52.556;13.384;2023-03-31T12:11:07;4.27;;;2.60;;
10162;SDS011;5123;52.556;13.384;2023-03-31T12:13:43;9.00;;;3.17;;
10162;SDS011;5123;52.556;13.384;2023-03-31T12:16:18;5.87;;;3.50;;
10162;SDS011;5123;52.556;13.384;2023-03-31T12:18:56;7.40;;;3.47;;
10162;SDS011;5123;52.556;13.384;2023-03-31T12:21:31;9.37;;;3.63;;
10162;SDS011;5123;52.556;13.384;2023-03-31T12:24:08;5.47;;;3.60;;
10162;SDS011;5123;52.556;13.384;2023-03-31T12:26:44;5.80;;;4.53;;
10162;SDS011;5123;52.556;13.384;2023-03-31T12:29:21;7.90;;;5.93;;
10162;SDS011;5123;52.556;13.384;2023-03-31T12:31:57;8.83;;;4.90;;
10162;SDS011;5123;52.556;13.384;2023-03-31T12:34:31;7.20;;;5.23;;
10162;SDS011;5123;52.556;13.384;2023-03-31T12:37:17;11.30;;;8.77;;
10162;SDS011;5123;52.556;13.384;2023-03-31T12:39:55;8.00;;;5.90;;
10162;SDS011;5123;52.556;13.384;2023-03-31T12:42:44;6.80;;;3.90;;
10162;SDS011;5123;52.556;13.384;2023-03-31T12:45:23;5.20;;;3.70;;
10162;SDS011;5123;52.556;13.384;2023-03-31T12:48:04;5.77;;;3.80;;
10162;SDS011;5123;52.556;13.384;2023-03-31T12:50:46;5.80;;;3.93;;
10162;SDS011;5123;52.556;13.384;2023-03-31T12:53:26;9.13;;;5.77;;
10162;SDS011;5123;52.556;13.384;2023-03-31T12:56:01;6.03;;;3.67;;
10162;SDS011;5123;52.556;13.384;2023-03-31T12:58:40;4.67;;;3.27;;
10162;SDS011;5123;52.556;13.384;2023-03-31T13:01:14;3.13;;;2.80;;
10162;SDS011;5123;52.556;13.384;2023-03-31T13:03:49;10.63;;;4.63;;
10162;SDS011;5123;52.556;13.384;2023-03-31T13:12:13;5.10;;;3.00;;
10162;SDS011;5123;52.556;13.384;2023-03-31T13:14:49;6.37;;;3.53;;
10162;SDS011;5123;52.556;13.384;2023-03-31T13:17:30;4.57;;;3.10;;
10162;SDS011;5123;52.556;13.384;2023-03-31T13:20:16;5.57;;;3.70;;
10162;SDS011;5123;52.556;13.384;2023-03-31T13:22:58;9.20;;;5.50;;
10162;SDS011;5123;52.556;13.384;2023-03-31T13:25:42;11.83;;;7.77;;
10162;SDS011;5123;52.556;13.384;2023-03-31T13:28:26;10.73;;;7.63;;
10162;SDS011;5123;52.556;13.384;2023-03-31T13:31:03;9.33;;;7.63;;
10162;SDS011;5123;52.556;13.384;2023-03-31T13:33:41;9.30;;;6.83;;
10162;SDS011;5123;52.556;13.384;2023-03-31T13:42:25;5.87;;;5.27;;
10162;SDS011;5123;52.556;13.384;2023-03-31T13:45:08;7.00;;;6.10;;
10162;SDS011;5123;52.556;13.384;2023-03-31T13:47:48;5.20;;;4.30;;
10162;SDS011;5123;52.556;13.384;2023-03-31T13:50:29;5.83;;;4.30;;
10162;SDS011;5123;52.556;13.384;2023-03-31T13:53:07;7.50;;;5.97;;
10162;SDS011;5123;52.556;13.384;2023-03-31T13:55:56;5.77;;;4.00;;
10162;SDS011;5123;52.556;13.384;2023-03-31T13:58:51;5.43;;;4.60;;
10162;SDS011;5123;52.556;13.384;2023-03-31T14:01:40;7.83;;;4.47;;
10162;SDS011;5123;52.556;13.384;2023-03-31T14:04:24;8.23;;;5.90;;
10162;SDS011;5123;52.556;13.384;2023-03-31T14:07:05;4.83;;;3.33;;
10162;SDS011;5123;52.556;13.384;2023-03-31T14:09:39;6.63;;;2.80;;
10162;SDS011;5123;52.556;13.384;2023-03-31T14:12:18;3.23;;;2.70;;
10162;SDS011;5123;52.556;13.384;2023-03-31T14:14:52;3.83;;;2.80;;
10162;SDS011;5123;52.556;13.384;2023-03-31T14:17:27;4.63;;;3.00;;
10162;SDS011;5123;52.556;13.384;2023-03-31T14:22:54;3.57;;;2.20;;
10162;SDS011;5123;52.556;13.384;2023-03-31T14:25:35;3.47;;;2.47;;
10162;SDS011;5123;52.556;13.384;2023-03-31T14:28:15;1.73;;;1.63;;
10162;SDS011;5123;52.556;13.384;2023-03-31T14:30:52;1.50;;;1.40;;
10162;SDS011;5123;52.556;13.384;2023-03-31T14:33:33;2.50;;;1.53;;
10162;SDS011;5123;52.556;13.384;2023-03-31T14:36:11;2.17;;;1.60;;
10162;SDS011;5123;52.556;13.384;2023-03-31T14:38:46;1.43;;;1.33;;
10162;SDS011;5123;52.556;13.384;2023-03-31T14:41:19;2.50;;;1.50;;
10162;SDS011;5123;52.556;13.384;2023-03-31T14:44:00;3.90;;;1.60;;
10162;SDS011;5123;52.556;13.384;2023-03-31T14:46:35;2.07;;;1.53;;
10162;SDS011;5123;52.556;13.384;2023-03-31T14:49:18;2.00;;;1.80;;
10162;SDS011;5123;52.556;13.384;2023-03-31T14:51:52;1.90;;;1.50;;
10162;SDS011;5123;52.556;13.384;2023-03-31T14:54:26;2.77;;;1.80;;
10162;SDS011;5123;52.556;13.384;2023-03-31T14:56:59;2.20;;;1.53;;
10162;SDS011;5123;52.556;13.384;2023-03-31T14:59:33;3.40;;;1.60;;
10162;SDS011;5123;52.556;13.384;2023-03-31T15:02:08;2.67;;;1.60;;
10162;SDS011;5123;52.556;13.384;2023-03-31T15:04:45;1.60;;;1.40;;
10162;SDS011;5123;52.556;13.384;2023-03-31T15:07:19;1.40;;;1.30;;
10162;SDS011;5123;52.556;13.384;2023-03-31T15:09:52;3.13;;;1.70;;
10162;SDS011;5123;52.556;13.384;2023-03-31T15:12:26;1.97;;;1.80;;
10162;SDS011;5123;52.556;13.384;2023-03-31T15:15:00;1.50;;;1.40;;
10162;SDS011;5123;52.556;13.384;2023-03-31T15:17:35;2.10;;;1.23;;
10162;SDS011;5123;52.556;13.384;2023-03-31T15:23:18;2.50;;;1.63;;
10162;SDS011;5123;52.556;13.384;2023-03-31T15:25:56;1.70;;;1.30;;
10162;SDS011;5123;52.556;13.384;2023-03-31T15:28:30;2.60;;;1.53;;
10162;SDS011;5123;52.556;13.384;2023-03-31T15:31:08;2.17;;;1.90;;
10162;SDS011;5123;52.556;13.384;2023-03-31T15:33:42;2.13;;;1.60;;
10162;SDS011;5123;52.556;13.384;2023-03-31T15:36:23;1.97;;;1.30;;
10162;SDS011;5123;52.556;13.384;2023-03-31T15:38:58;2.07;;;1.53;;
10162;SDS011;5123;52.556;13.384;2023-03-31T15:41:31;3.63;;;1.50;;
10162;SDS011;5123;52.556;13.384;2023-03-31T15:44:05;1.93;;;1.77;;
10162;SDS011;5123;52.556;13.384;2023-03-31T15:46:47;3.60;;;1.30;;
10162;SDS011;5123;52.556;13.384;2023-03-31T15:49:22;2.20;;;2.00;;
10162;SDS011;5123;52.556;13.384;2023-03-31T15:51:55;2.73;;;1.80;;
10162;SDS011;5123;52.556;13.384;2023-03-31T15:54:36;2.77;;;1.87;;
10162;SDS011;5123;52.556;13.384;2023-03-31T15:57:13;2.07;;;1.87;;
10162;SDS011;5123;52.556;13.384;2023-03-31T15:59:49;2.53;;;1.70;;
10162;SDS011;5123;52.556;13.384;2023-03-31T16:02:33;2.40;;;2.20;;
10162;SDS011;5123;52.556;13.384;2023-03-31T16:05:20;5.83;;;2.10;;
10162;SDS011;5123;52.556;13.384;2023-03-31T16:07:58;16.97;;;4.17;;
10162;SDS011;5123;52.556;13.384;2023-03-31T16:10:33;2.13;;;1.73;;
10162;SDS011;5123;52.556;13.384;2023-03-31T16:13:06;4.33;;;2.30;;
10162;SDS011;5123;52.556;13.384;2023-03-31T16:15:41;3.50;;;1.60;;
10162;SDS011;5123;52.556;13.384;2023-03-31T16:18:15;2.73;;;1.77;;
10162;SDS011;5123;52.556;13.384;2023-03-31T16:20:50;1.97;;;1.77;;